Canisteo, New York
Current Conditions -  °F | °C
As of 8:54 PM on Monday 22 Dec 2014 (Local Time) from KDSV Reporting Station
Overcast Overcast  
Wind Chill: 27°   Ceiling: 7500
Heat Index: 35°   Visibility: 10mi
Dew Point: 25°   Wind: 12mph
Humidity: 67%   Direction: 150°SSE
Pressure: 30.09"   Gusts: NA
Location:  42.27°N, 77.61°W
Report Text: KDSV 230154Z AUTO 15010KT 10SM SCT043 OVC075 02/M04 A3009 RMK AO2 SLP205 T00171039
Loading
Personal Weather Stations






























Interactive Weather Map New forecast layout! Learn more

10-Day Weather Forecast

Advertisements
Track Severe Weather on mobile